createdAt,value
2022-09-03T00:00:58.694Z,14.20
2022-09-03T00:03:37.552Z,14.20
2022-09-03T00:06:18.874Z,14.30
2022-09-03T00:09:06.947Z,14.20
2022-09-03T00:11:51.110Z,14.20
2022-09-03T00:14:28.674Z,14.20
2022-09-03T00:17:01.213Z,14.20
2022-09-03T00:19:35.285Z,14.20
2022-09-03T00:22:22.022Z,14.20
2022-09-03T00:24:50.508Z,14.20
2022-09-03T00:27:26.422Z,14.20
2022-09-03T00:30:06.591Z,14.20
2022-09-03T00:32:59.591Z,14.10
2022-09-03T00:35:42.183Z,14.20
2022-09-03T00:38:09.569Z,14.20
2022-09-03T00:41:02.894Z,14.20
2022-09-03T00:43:48.437Z,14.30
2022-09-03T00:46:20.640Z,14.30
2022-09-03T00:49:11.122Z,14.20
2022-09-03T00:51:50.151Z,14.20
2022-09-03T00:54:25.565Z,14.20
2022-09-03T00:57:05.556Z,14.20
2022-09-03T00:59:42.075Z,14.20
2022-09-03T01:02:29.118Z,14.20
2022-09-03T01:04:56.243Z,14.20
2022-09-03T01:07:47.306Z,14.20
2022-09-03T01:10:20.371Z,14.20
2022-09-03T01:13:11.504Z,14.20
2022-09-03T01:15:49.070Z,14.20
2022-09-03T01:18:19.239Z,14.20
2022-09-03T01:21:25.087Z,14.20
2022-09-03T01:24:31.344Z,14.10
2022-09-03T01:27:15.356Z,14.10
2022-09-03T01:30:04.158Z,14.10
2022-09-03T01:32:57.839Z,14.10
2022-09-03T01:35:36.908Z,14.00
2022-09-03T01:38:25.340Z,14.00
2022-09-03T01:41:20.531Z,14.00
2022-09-03T01:44:23.868Z,14.00
2022-09-03T01:47:19.381Z,14.00
2022-09-03T01:50:10.170Z,13.90
2022-09-03T01:52:45.897Z,13.90
2022-09-03T01:55:28.704Z,13.90
2022-09-03T01:58:02.609Z,13.90
2022-09-03T02:00:34.525Z,13.90
2022-09-03T02:03:07.135Z,13.90
2022-09-03T02:05:35.317Z,13.90
2022-09-03T02:08:07.988Z,13.90
2022-09-03T02:10:59.946Z,13.90
2022-09-03T02:13:43.503Z,13.90
2022-09-03T02:16:17.136Z,13.90
2022-09-03T02:18:48.482Z,13.90
2022-09-03T02:21:20.186Z,13.90
2022-09-03T02:23:48.727Z,13.90
2022-09-03T02:26:19.354Z,13.90
2022-09-03T02:28:46.598Z,13.90
2022-09-03T02:31:13.777Z,13.90
2022-09-03T02:33:44.764Z,13.90
2022-09-03T02:36:14.725Z,14.00
2022-09-03T02:38:43.278Z,14.00
2022-09-03T02:41:15.162Z,14.00
2022-09-03T02:43:50.050Z,14.00
2022-09-03T02:46:35.523Z,14.00
2022-09-03T02:49:02.698Z,14.00
2022-09-03T02:51:36.639Z,14.10
2022-09-03T02:54:05.130Z,14.10
2022-09-03T02:56:32.440Z,14.10
2022-09-03T02:59:00.398Z,14.10
2022-09-03T03:01:27.752Z,14.10
2022-09-03T03:03:54.820Z,14.10
2022-09-03T03:06:22.633Z,14.10
2022-09-03T03:08:50.577Z,14.10
2022-09-03T03:11:19.506Z,14.10
2022-09-03T03:13:47.095Z,14.10
2022-09-03T03:16:16.055Z,14.10
2022-09-03T03:18:43.313Z,14.20
2022-09-03T03:21:11.982Z,14.10
2022-09-03T03:23:39.894Z,14.20
2022-09-03T03:26:10.191Z,14.20
2022-09-03T03:28:37.755Z,14.20
2022-09-03T03:31:16.089Z,14.20
2022-09-03T03:33:44.257Z,14.20
2022-09-03T03:36:15.093Z,14.20
2022-09-03T03:38:43.875Z,14.20
2022-09-03T03:41:13.101Z,14.10
2022-09-03T03:43:40.221Z,14.20
2022-09-03T03:46:07.734Z,14.20
2022-09-03T03:48:34.956Z,14.20
2022-09-03T03:51:04.405Z,14.10
2022-09-03T03:53:31.957Z,14.10
2022-09-03T03:56:01.605Z,14.20
2022-09-03T03:58:29.955Z,14.10
2022-09-03T04:01:08.048Z,14.20
2022-09-03T04:03:36.066Z,14.20
2022-09-03T04:06:04.927Z,14.20
2022-09-03T04:08:35.467Z,14.20
2022-09-03T04:11:04.529Z,14.20
2022-09-03T04:13:36.886Z,14.20
2022-09-03T04:16:06.109Z,14.20
2022-09-03T04:18:34.382Z,14.10
2022-09-03T04:21:07.191Z,14.10
2022-09-03T04:23:39.817Z,14.20
2022-09-03T04:26:08.360Z,14.20
2022-09-03T04:28:35.807Z,14.20
2022-09-03T04:31:07.788Z,14.20
2022-09-03T04:33:38.320Z,14.10
2022-09-03T04:36:11.739Z,14.10
2022-09-03T04:38:41.601Z,14.10
2022-09-03T04:41:11.793Z,14.20
2022-09-03T04:43:39.127Z,14.10
2022-09-03T04:46:12.948Z,14.10
2022-09-03T04:48:47.642Z,14.20
2022-09-03T04:51:16.924Z,14.20
2022-09-03T04:53:46.630Z,14.20
2022-09-03T04:56:14.926Z,14.10
2022-09-03T04:58:44.287Z,14.10
2022-09-03T05:01:17.512Z,14.20
2022-09-03T05:03:45.699Z,14.20
2022-09-03T05:06:13.682Z,14.20
2022-09-03T05:08:40.833Z,14.20
2022-09-03T05:11:08.631Z,14.20
2022-09-03T05:13:37.080Z,14.20
2022-09-03T05:16:09.160Z,14.20
2022-09-03T05:18:37.501Z,14.20
2022-09-03T05:21:10.798Z,14.20
2022-09-03T05:23:43.611Z,14.20
2022-09-03T05:26:13.418Z,14.30
2022-09-03T05:28:42.411Z,14.30
2022-09-03T05:31:12.863Z,14.40
2022-09-03T05:33:42.988Z,14.30
2022-09-03T05:36:13.628Z,14.40
2022-09-03T05:38:40.949Z,14.40
2022-09-03T05:41:10.299Z,14.40
2022-09-03T05:43:37.987Z,14.40
2022-09-03T05:46:14.219Z,14.50
2022-09-03T05:48:41.669Z,14.50
2022-09-03T05:51:11.362Z,14.50
2022-09-03T05:53:40.565Z,14.60
2022-09-03T05:56:13.338Z,14.60
2022-09-03T05:58:44.309Z,14.60
2022-09-03T06:01:14.234Z,14.60
2022-09-03T06:03:43.708Z,14.60
2022-09-03T06:06:14.037Z,14.60
2022-09-03T06:08:42.487Z,14.60
2022-09-03T06:11:09.682Z,14.60
2022-09-03T06:13:37.037Z,14.60
2022-09-03T06:16:06.473Z,14.60
2022-09-03T06:18:33.866Z,14.60
2022-09-03T06:21:04.111Z,14.60
2022-09-03T06:23:33.570Z,14.60
2022-09-03T06:26:06.959Z,14.70
2022-09-03T06:28:36.209Z,14.60
2022-09-03T06:31:05.689Z,14.70
2022-09-03T06:33:34.764Z,14.70
2022-09-03T06:36:06.820Z,14.70
2022-09-03T06:38:36.760Z,14.70
2022-09-03T06:41:08.494Z,14.70
2022-09-03T06:43:38.601Z,14.70
2022-09-03T06:46:17.412Z,14.70
2022-09-03T06:48:46.076Z,14.70
2022-09-03T06:51:18.534Z,14.70
2022-09-03T06:53:48.222Z,14.80
2022-09-03T06:56:26.205Z,14.80
2022-09-03T06:59:03.862Z,14.90
2022-09-03T07:01:32.589Z,14.90
2022-09-03T07:04:01.921Z,15.00
2022-09-03T07:06:33.834Z,15.00
2022-09-03T07:09:01.234Z,15.10
2022-09-03T07:11:31.689Z,15.10
2022-09-03T07:14:00.411Z,15.10
2022-09-03T07:16:36.203Z,15.20
2022-09-03T07:19:07.530Z,15.20
2022-09-03T07:21:38.883Z,15.30
2022-09-03T07:24:07.019Z,15.40
2022-09-03T07:26:38.368Z,15.50
2022-09-03T07:29:08.499Z,15.60
2022-09-03T07:31:38.578Z,15.70
2022-09-03T07:34:16.583Z,15.70
2022-09-03T07:36:47.680Z,15.80
2022-09-03T07:39:18.038Z,15.80
2022-09-03T07:41:46.355Z,15.80
2022-09-03T07:44:16.388Z,15.70
2022-09-03T07:46:46.265Z,15.60
2022-09-03T07:49:14.555Z,15.50
2022-09-03T07:51:41.658Z,15.50
2022-09-03T07:54:11.539Z,15.40
2022-09-03T07:56:40.664Z,15.40
2022-09-03T07:59:09.093Z,15.40
2022-09-03T08:01:41.692Z,15.40
2022-09-03T08:04:10.123Z,15.40
2022-09-03T08:06:38.494Z,15.50
2022-09-03T08:09:11.472Z,15.50
2022-09-03T08:11:40.843Z,15.50
2022-09-03T08:14:12.983Z,15.60
2022-09-03T08:16:42.813Z,15.60
2022-09-03T08:19:11.509Z,15.60
2022-09-03T08:21:42.345Z,15.70
2022-09-03T08:24:11.269Z,15.80
2022-09-03T08:26:46.240Z,15.80
2022-09-03T08:29:14.979Z,15.80
2022-09-03T08:31:43.291Z,15.80
2022-09-03T08:34:11.965Z,15.80
2022-09-03T08:36:41.596Z,15.90
2022-09-03T08:39:10.858Z,15.90
2022-09-03T08:41:53.373Z,15.90
2022-09-03T08:44:40.894Z,15.80
2022-09-03T08:47:23.995Z,15.80
2022-09-03T08:50:13.489Z,15.80
2022-09-03T08:53:00.508Z,15.90
2022-09-03T08:55:45.080Z,15.90
2022-09-03T08:58:21.284Z,16.00
2022-09-03T09:01:04.254Z,16.10
2022-09-03T09:04:16.092Z,16.20
2022-09-03T09:06:53.618Z,16.40
2022-09-03T09:09:44.683Z,16.70
2022-09-03T09:12:41.431Z,16.90
2022-09-03T09:15:39.003Z,17.00
2022-09-03T09:18:37.378Z,17.10
2022-09-03T09:21:20.946Z,17.30
2022-09-03T09:23:50.927Z,17.30
2022-09-03T09:26:20.816Z,17.40
2022-09-03T09:28:54.714Z,17.50
2022-09-03T09:31:21.987Z,17.60
2022-09-03T09:33:49.391Z,17.50
2022-09-03T09:36:19.615Z,17.50
2022-09-03T09:38:48.933Z,17.40
2022-09-03T09:41:19.776Z,17.20
2022-09-03T09:44:02.328Z,17.00
2022-09-03T09:46:38.154Z,17.10
2022-09-03T09:49:29.910Z,17.20
2022-09-03T09:52:14.419Z,17.30
2022-09-03T09:54:44.032Z,17.20
2022-09-03T09:57:18.354Z,17.40
2022-09-03T09:59:49.638Z,17.60
2022-09-03T10:02:24.197Z,17.90
2022-09-03T10:04:51.519Z,18.10
2022-09-03T10:07:31.278Z,18.30
2022-09-03T10:10:19.742Z,18.40
2022-09-03T10:13:05.994Z,18.50
2022-09-03T10:15:37.979Z,18.40
2022-09-03T10:18:29.248Z,18.30
2022-09-03T10:21:05.280Z,18.30
2022-09-03T10:24:03.655Z,18.30
2022-09-03T10:26:37.200Z,18.30
2022-09-03T10:29:07.183Z,18.30
2022-09-03T10:32:01.782Z,18.40
2022-09-03T10:34:45.987Z,18.50
2022-09-03T10:37:43.991Z,18.30
2022-09-03T10:40:32.178Z,18.20
2022-09-03T10:43:11.712Z,18.30
2022-09-03T10:45:59.466Z,18.40
2022-09-03T10:48:38.653Z,18.40
2022-09-03T10:51:13.915Z,18.30
2022-09-03T10:53:56.254Z,18.20
2022-09-03T10:56:51.086Z,18.10
2022-09-03T10:59:43.118Z,18.20
2022-09-03T11:02:38.109Z,18.20
2022-09-03T11:05:21.826Z,18.20
2022-09-03T11:07:57.219Z,18.10
2022-09-03T11:10:41.197Z,18.30
2022-09-03T11:13:20.771Z,18.30
2022-09-03T11:15:56.462Z,18.20
2022-09-03T11:18:47.057Z,18.20
2022-09-03T11:21:16.685Z,18.20
2022-09-03T11:23:47.122Z,18.30
2022-09-03T11:26:18.525Z,18.20
2022-09-03T11:29:06.018Z,18.20
2022-09-03T11:31:57.850Z,18.40
2022-09-03T11:34:31.750Z,18.30
2022-09-03T11:37:30.376Z,18.20
2022-09-03T11:40:11.906Z,18.30
2022-09-03T11:42:43.521Z,18.30
2022-09-03T11:45:30.376Z,18.50
2022-09-03T11:47:57.623Z,18.70
2022-09-03T11:50:29.087Z,19.00
2022-09-03T11:53:24.528Z,19.10
2022-09-03T11:56:18.766Z,18.90
2022-09-03T11:58:47.695Z,19.10
2022-09-03T12:01:18.335Z,19.10
2022-09-03T12:03:51.456Z,19.20
2022-09-03T12:06:33.949Z,19.20
2022-09-03T12:09:21.240Z,19.30
2022-09-03T12:11:58.192Z,19.40
2022-09-03T12:14:31.859Z,19.20
2022-09-03T12:17:09.147Z,19.10
2022-09-03T12:19:57.203Z,19.00
2022-09-03T12:22:31.395Z,19.10
2022-09-03T12:25:15.478Z,19.40
2022-09-03T12:27:46.885Z,19.40
2022-09-03T12:30:24.913Z,19.30
2022-09-03T12:33:05.066Z,19.20
2022-09-03T12:38:25.162Z,19.10
2022-09-03T12:43:41.774Z,19.30
2022-09-03T12:46:16.215Z,19.30
2022-09-03T12:52:30.307Z,19.40
2022-09-03T12:55:04.529Z,19.30
2022-09-03T12:57:43.863Z,19.20
2022-09-03T13:00:15.777Z,19.30
2022-09-03T13:03:04.162Z,19.10
2022-09-03T13:05:39.500Z,19.10
2022-09-03T13:08:10.172Z,18.90
2022-09-03T13:10:44.014Z,18.70
2022-09-03T13:13:32.087Z,18.60
2022-09-03T13:16:47.378Z,18.50
2022-09-03T13:19:49.595Z,18.50
2022-09-03T13:22:47.586Z,18.70
2022-09-03T13:25:25.686Z,18.60
2022-09-03T13:28:31.961Z,18.60
2022-09-03T13:31:22.879Z,18.50
2022-09-03T13:34:03.262Z,18.50
2022-09-03T13:36:53.434Z,18.40
2022-09-03T13:39:38.819Z,18.30
2022-09-03T13:42:18.361Z,18.30
2022-09-03T13:44:55.545Z,18.30
2022-09-03T13:48:03.364Z,18.40
2022-09-03T13:50:59.966Z,18.40
2022-09-03T13:53:49.091Z,18.70
2022-09-03T13:56:27.505Z,18.40
2022-09-03T13:59:25.332Z,18.20
2022-09-03T14:02:06.500Z,18.20
2022-09-03T14:04:58.465Z,18.20
2022-09-03T14:07:28.439Z,18.00
2022-09-03T14:10:10.317Z,17.90
2022-09-03T14:12:46.953Z,17.90
2022-09-03T14:15:29.526Z,17.80
2022-09-03T14:18:00.211Z,17.90
2022-09-03T14:20:29.550Z,17.80
2022-09-03T14:23:08.133Z,17.70
2022-09-03T14:25:35.364Z,17.70
2022-09-03T14:28:36.528Z,17.60
2022-09-03T14:31:52.586Z,17.50
2022-09-03T14:34:38.190Z,17.30
2022-09-03T14:37:45.432Z,17.40
2022-09-03T14:40:19.653Z,17.40
2022-09-03T14:42:49.666Z,17.40
2022-09-03T14:45:41.170Z,17.40
2022-09-03T14:48:25.445Z,17.40
2022-09-03T14:51:34.339Z,17.40
2022-09-03T14:54:30.986Z,17.50
2022-09-03T14:57:15.012Z,17.50
2022-09-03T15:00:00.049Z,17.40
2022-09-03T15:02:56.354Z,17.30
2022-09-03T15:05:51.868Z,17.30
2022-09-03T15:08:36.963Z,17.30
2022-09-03T15:11:31.345Z,17.50
2022-09-03T15:14:13.164Z,17.40
2022-09-03T15:17:20.617Z,17.50
2022-09-03T15:20:09.022Z,17.60
2022-09-03T15:22:58.248Z,17.50
2022-09-03T15:26:06.289Z,17.50
2022-09-03T15:28:57.626Z,17.40
2022-09-03T15:31:49.138Z,17.40
2022-09-03T15:34:22.394Z,17.20
2022-09-03T15:36:55.615Z,17.20
2022-09-03T15:39:32.229Z,17.20
2022-09-03T15:42:10.477Z,17.30
2022-09-03T15:44:48.234Z,17.40
2022-09-03T15:47:51.550Z,17.40
2022-09-03T15:50:53.208Z,17.50
2022-09-03T15:53:38.961Z,17.60
2022-09-03T15:56:29.270Z,17.60
2022-09-03T15:59:31.921Z,17.60
2022-09-03T16:02:11.207Z,17.60
2022-09-03T16:04:49.258Z,17.40
2022-09-03T16:07:38.389Z,17.30
2022-09-03T16:10:24.779Z,17.30
2022-09-03T16:13:30.392Z,17.20
2022-09-03T16:16:02.367Z,17.10
2022-09-03T16:18:35.983Z,17.00
2022-09-03T16:21:35.150Z,16.90
2022-09-03T16:24:25.994Z,16.90
2022-09-03T16:26:56.835Z,16.80
2022-09-03T16:29:31.190Z,16.80
2022-09-03T16:32:21.384Z,16.70
2022-09-03T16:35:23.731Z,16.70
2022-09-03T16:38:25.410Z,16.60
2022-09-03T16:41:10.888Z,16.50
2022-09-03T16:44:10.448Z,16.50
2022-09-03T16:46:55.370Z,16.50
2022-09-03T16:49:49.931Z,16.50
2022-09-03T16:52:37.871Z,16.40
2022-09-03T16:55:22.844Z,16.40
2022-09-03T16:57:50.198Z,16.30
2022-09-03T17:00:21.455Z,16.30
2022-09-03T17:03:26.368Z,16.20
2022-09-03T17:06:35.058Z,16.20
2022-09-03T17:09:02.204Z,16.10
2022-09-03T17:11:50.284Z,16.10
2022-09-03T17:14:26.304Z,16.00
2022-09-03T17:17:11.578Z,16.00
2022-09-03T17:19:52.087Z,16.00
2022-09-03T17:22:45.611Z,16.00
2022-09-03T17:25:29.311Z,16.00
2022-09-03T17:28:11.411Z,15.90
2022-09-03T17:30:53.910Z,15.90
2022-09-03T17:33:36.004Z,15.90
2022-09-03T17:36:35.515Z,15.90
2022-09-03T17:39:05.537Z,15.90
2022-09-03T17:41:34.349Z,15.90
2022-09-03T17:44:24.485Z,15.90
2022-09-03T17:47:17.341Z,15.90
2022-09-03T17:49:58.562Z,15.80
2022-09-03T17:53:07.079Z,15.80
2022-09-03T17:55:54.757Z,15.70
2022-09-03T17:58:21.913Z,15.70
2022-09-03T18:01:03.467Z,15.70
2022-09-03T18:03:35.988Z,15.70
2022-09-03T18:06:42.469Z,15.60
2022-09-03T18:09:37.646Z,15.60
2022-09-03T18:12:14.857Z,15.50
2022-09-03T18:14:59.726Z,15.50
2022-09-03T18:17:49.439Z,15.50
2022-09-03T18:20:35.116Z,15.50
2022-09-03T18:23:29.933Z,15.40
2022-09-03T18:26:26.467Z,15.40
2022-09-03T18:29:34.938Z,15.40
2022-09-03T18:32:20.880Z,15.40
2022-09-03T18:35:06.422Z,15.40
2022-09-03T18:37:51.993Z,15.30
2022-09-03T18:40:46.074Z,15.30
2022-09-03T18:44:10.153Z,15.30
2022-09-03T18:50:38.815Z,15.20
2022-09-03T18:53:52.878Z,15.20
2022-09-03T18:56:44.955Z,15.20
2022-09-03T18:59:50.780Z,15.10
2022-09-03T19:03:12.292Z,15.10
2022-09-03T19:06:34.044Z,15.10
2022-09-03T19:09:30.227Z,15.10
2022-09-03T19:12:41.071Z,15.10
2022-09-03T19:15:41.975Z,15.10
2022-09-03T19:18:39.479Z,15.10
2022-09-03T19:21:43.556Z,15.10
2022-09-03T19:24:29.062Z,15.10
2022-09-03T19:27:51.816Z,15.10
2022-09-03T19:31:19.909Z,15.10
2022-09-03T19:34:23.619Z,15.10
2022-09-03T19:37:19.009Z,15.10
2022-09-03T19:40:07.555Z,15.10
2022-09-03T19:43:08.620Z,15.10
2022-09-03T19:46:18.240Z,15.10
2022-09-03T19:49:17.165Z,15.10
2022-09-03T19:52:11.852Z,15.10
2022-09-03T19:54:58.622Z,15.00
2022-09-03T19:57:45.857Z,15.10
2022-09-03T20:00:33.207Z,15.00
2022-09-03T20:03:21.221Z,15.00
2022-09-03T20:06:11.015Z,15.00
2022-09-03T20:08:57.600Z,15.00
2022-09-03T20:11:28.162Z,15.00
2022-09-03T20:14:16.026Z,15.00
2022-09-03T20:17:18.391Z,15.00
2022-09-03T20:19:51.122Z,15.00
2022-09-03T20:22:31.646Z,15.00
2022-09-03T20:25:37.707Z,15.00
2022-09-03T20:28:45.959Z,15.00
2022-09-03T20:31:31.716Z,15.00
2022-09-03T20:33:58.658Z,15.00
2022-09-03T20:36:37.659Z,14.90
2022-09-03T20:39:24.433Z,14.90
2022-09-03T20:42:27.224Z,14.90
2022-09-03T20:45:17.717Z,14.90
2022-09-03T20:48:13.610Z,14.90
2022-09-03T20:51:13.268Z,14.90
2022-09-03T20:54:06.449Z,14.90
2022-09-03T20:56:36.616Z,14.90
2022-09-03T20:59:18.277Z,14.90
2022-09-03T21:02:05.625Z,14.90
2022-09-03T21:04:38.534Z,14.90
2022-09-03T21:07:14.704Z,14.90
2022-09-03T21:09:41.795Z,14.90
2022-09-03T21:12:27.930Z,15.00
2022-09-03T21:15:12.294Z,14.90
2022-09-03T21:17:49.092Z,14.90
2022-09-03T21:20:42.176Z,14.90
2022-09-03T21:23:22.798Z,14.90
2022-09-03T21:26:17.238Z,14.90
2022-09-03T21:28:52.920Z,14.90
2022-09-03T21:31:29.111Z,14.90
2022-09-03T21:34:06.709Z,14.90
2022-09-03T21:36:39.554Z,14.90
2022-09-03T21:39:15.311Z,14.90
2022-09-03T21:41:49.692Z,14.90
2022-09-03T21:44:38.774Z,14.90
2022-09-03T21:47:10.779Z,14.90
2022-09-03T21:49:52.675Z,14.90
2022-09-03T21:52:27.337Z,14.80
2022-09-03T21:54:54.460Z,14.90
2022-09-03T21:57:23.601Z,14.90
2022-09-03T21:59:59.573Z,14.90
2022-09-03T22:02:28.767Z,14.90
2022-09-03T22:04:58.154Z,14.80
2022-09-03T22:07:37.936Z,14.90
2022-09-03T22:10:13.430Z,14.90
2022-09-03T22:12:46.722Z,14.80
2022-09-03T22:15:14.822Z,14.80
2022-09-03T22:18:15.538Z,14.80
2022-09-03T22:20:52.772Z,14.90
2022-09-03T22:23:26.689Z,14.90
2022-09-03T22:26:07.596Z,14.80
2022-09-03T22:28:45.057Z,14.80
2022-09-03T22:31:24.757Z,14.80
2022-09-03T22:34:02.989Z,14.80
2022-09-03T22:36:50.600Z,14.80
2022-09-03T22:39:27.589Z,14.80
2022-09-03T22:42:04.582Z,14.80
2022-09-03T22:45:05.164Z,14.80
2022-09-03T22:47:50.389Z,14.80
2022-09-03T22:50:48.769Z,14.80
2022-09-03T22:53:34.676Z,14.80
2022-09-03T22:56:11.199Z,14.80
2022-09-03T22:58:41.254Z,14.80
2022-09-03T23:01:16.708Z,14.80
2022-09-03T23:04:22.062Z,14.80
2022-09-03T23:07:19.010Z,14.80
2022-09-03T23:09:56.124Z,14.80
2022-09-03T23:12:52.077Z,14.80
2022-09-03T23:15:23.331Z,14.80
2022-09-03T23:18:00.664Z,14.80
2022-09-03T23:20:29.532Z,14.80
2022-09-03T23:23:22.612Z,14.90
2022-09-03T23:26:17.467Z,14.90
2022-09-03T23:29:29.192Z,14.90
2022-09-03T23:31:57.465Z,14.90
2022-09-03T23:34:25.376Z,14.90
2022-09-03T23:37:32.567Z,14.90
2022-09-03T23:40:18.803Z,14.90
2022-09-03T23:43:12.356Z,14.90
2022-09-03T23:46:06.657Z,14.90
2022-09-03T23:48:45.698Z,15.00
2022-09-03T23:51:39.743Z,15.00
2022-09-03T23:54:38.152Z,15.00
2022-09-03T23:57:10.588Z,15.00
